sensor_id;sensor_type;location;lat;lon;timestamp;pressure;altitude;pressure_sealevel;temperature;humidity
77299;BME280;66361;52.034;20.656;2023-12-22T00:01:40;96306.34;;;4.49;80.31
77299;BME280;66361;52.034;20.656;2023-12-22T00:05:24;96308.72;;;4.41;80.37
77299;BME280;66361;52.034;20.656;2023-12-22T00:09:09;96303.25;;;4.44;80.46
77299;BME280;66361;52.034;20.656;2023-12-22T00:12:54;96319.50;;;4.37;80.57
77299;BME280;66361;52.034;20.656;2023-12-22T00:16:38;96323.66;;;4.17;80.57
77299;BME280;66361;52.034;20.656;2023-12-22T00:20:22;96317.47;;;3.85;81.63
77299;BME280;66361;52.034;20.656;2023-12-22T00:24:07;96333.16;;;3.72;81.70
77299;BME280;66361;52.034;20.656;2023-12-22T00:27:51;96348.44;;;3.65;81.61
77299;BME280;66361;52.034;20.656;2023-12-22T00:31:37;96354.84;;;3.72;80.80
77299;BME280;66361;52.034;20.656;2023-12-22T00:35:21;96380.03;;;3.61;81.37
77299;BME280;66361;52.034;20.656;2023-12-22T00:39:05;96382.41;;;3.64;80.60
77299;BME280;66361;52.034;20.656;2023-12-22T00:42:50;96383.69;;;3.58;79.70
77299;BME280;66361;52.034;20.656;2023-12-22T00:46:34;96387.84;;;3.61;79.08
77299;BME280;66361;52.034;20.656;2023-12-22T00:50:22;96378.06;;;3.76;78.73
77299;BME280;66361;52.034;20.656;2023-12-22T00:54:07;96379.22;;;3.71;78.34
77299;BME280;66361;52.034;20.656;2023-12-22T00:57:51;96371.59;;;3.57;78.45
77299;BME280;66361;52.034;20.656;2023-12-22T01:01:35;96369.09;;;3.56;77.96
77299;BME280;66361;52.034;20.656;2023-12-22T01:05:21;96371.03;;;3.65;76.88
77299;BME280;66361;52.034;20.656;2023-12-22T01:09:06;96363.78;;;3.57;77.40
77299;BME280;66361;52.034;20.656;2023-12-22T01:12:50;96370.56;;;3.60;76.53
77299;BME280;66361;52.034;20.656;2023-12-22T01:16:34;96362.53;;;3.63;75.48
77299;BME280;66361;52.034;20.656;2023-12-22T01:20:18;96361.38;;;3.43;76.20
77299;BME280;66361;52.034;20.656;2023-12-22T01:24:04;96358.31;;;3.49;75.80
77299;BME280;66361;52.034;20.656;2023-12-22T01:27:51;96357.31;;;3.63;74.67
77299;BME280;66361;52.034;20.656;2023-12-22T01:31:36;96362.75;;;3.71;75.05
77299;BME280;66361;52.034;20.656;2023-12-22T01:35:21;96347.78;;;3.51;75.17
77299;BME280;66361;52.034;20.656;2023-12-22T01:39:06;96360.97;;;3.60;75.44
77299;BME280;66361;52.034;20.656;2023-12-22T01:42:57;96363.47;;;3.62;74.97
77299;BME280;66361;52.034;20.656;2023-12-22T01:46:41;96362.25;;;3.55;75.30
77299;BME280;66361;52.034;20.656;2023-12-22T01:50:26;96359.94;;;3.63;75.42
77299;BME280;66361;52.034;20.656;2023-12-22T01:54:13;96363.13;;;3.66;74.78
77299;BME280;66361;52.034;20.656;2023-12-22T01:57:58;96355.34;;;3.78;75.29
77299;BME280;66361;52.034;20.656;2023-12-22T02:01:43;96360.47;;;3.90;74.57
77299;BME280;66361;52.034;20.656;2023-12-22T02:05:28;96359.06;;;3.97;74.78
77299;BME280;66361;52.034;20.656;2023-12-22T02:09:14;96360.47;;;4.01;74.92
77299;BME280;66361;52.034;20.656;2023-12-22T02:12:58;96345.19;;;3.97;75.21
77299;BME280;66361;52.034;20.656;2023-12-22T02:16:46;96348.28;;;4.02;74.92
77299;BME280;66361;52.034;20.656;2023-12-22T02:20:32;96351.25;;;3.97;75.47
77299;BME280;66361;52.034;20.656;2023-12-22T02:24:18;96346.25;;;3.94;75.64
77299;BME280;66361;52.034;20.656;2023-12-22T02:28:07;96343.31;;;3.99;75.22
77299;BME280;66361;52.034;20.656;2023-12-22T02:31:53;96348.75;;;4.07;74.62
77299;BME280;66361;52.034;20.656;2023-12-22T02:35:41;96346.03;;;4.08;74.78
77299;BME280;66361;52.034;20.656;2023-12-22T02:39:28;96360.25;;;4.16;73.73
77299;BME280;66361;52.034;20.656;2023-12-22T02:43:12;96345.69;;;4.13;73.46
77299;BME280;66361;52.034;20.656;2023-12-22T02:46:56;96341.66;;;3.98;73.47
77299;BME280;66361;52.034;20.656;2023-12-22T02:50:40;96349.84;;;4.04;72.61
77299;BME280;66361;52.034;20.656;2023-12-22T02:54:24;96331.78;;;3.90;73.30
77299;BME280;66361;52.034;20.656;2023-12-22T02:58:12;96341.88;;;3.95;73.33
77299;BME280;66361;52.034;20.656;2023-12-22T03:01:56;96332.75;;;4.00;73.43
77299;BME280;66361;52.034;20.656;2023-12-22T03:05:40;96332.88;;;3.99;73.29
77299;BME280;66361;52.034;20.656;2023-12-22T03:09:26;96331.22;;;4.09;73.05
77299;BME280;66361;52.034;20.656;2023-12-22T03:13:18;96341.06;;;4.05;73.37
77299;BME280;66361;52.034;20.656;2023-12-22T03:17:03;96348.38;;;4.00;73.81
77299;BME280;66361;52.034;20.656;2023-12-22T03:20:48;96341.03;;;3.94;73.33
77299;BME280;66361;52.034;20.656;2023-12-22T03:24:32;96337.38;;;3.97;72.96
77299;BME280;66361;52.034;20.656;2023-12-22T03:28:16;96350.50;;;3.95;73.26
77299;BME280;66361;52.034;20.656;2023-12-22T03:32:01;96337.94;;;3.89;72.99
77299;BME280;66361;52.034;20.656;2023-12-22T03:35:45;96344.47;;;3.84;73.20
77299;BME280;66361;52.034;20.656;2023-12-22T03:39:31;96349.41;;;3.76;73.62
77299;BME280;66361;52.034;20.656;2023-12-22T03:43:17;96340.97;;;3.72;73.45
77299;BME280;66361;52.034;20.656;2023-12-22T03:47:03;96344.78;;;3.68;73.81
77299;BME280;66361;52.034;20.656;2023-12-22T03:50:47;96331.38;;;3.72;73.01
77299;BME280;66361;52.034;20.656;2023-12-22T03:54:30;96341.44;;;3.66;74.27
77299;BME280;66361;52.034;20.656;2023-12-22T03:58:14;96341.69;;;3.74;72.87
77299;BME280;66361;52.034;20.656;2023-12-22T04:01:58;96348.22;;;3.68;73.47
77299;BME280;66361;52.034;20.656;2023-12-22T04:05:46;96349.25;;;3.66;74.16
77299;BME280;66361;52.034;20.656;2023-12-22T04:09:32;96352.31;;;3.60;74.50
77299;BME280;66361;52.034;20.656;2023-12-22T04:13:16;96352.88;;;3.52;74.97
77299;BME280;66361;52.034;20.656;2023-12-22T04:17:00;96343.97;;;3.44;75.87
77299;BME280;66361;52.034;20.656;2023-12-22T04:20:45;96346.41;;;3.34;76.08
77299;BME280;66361;52.034;20.656;2023-12-22T04:24:32;96356.28;;;3.18;77.55
77299;BME280;66361;52.034;20.656;2023-12-22T04:28:15;96360.97;;;3.13;78.14
77299;BME280;66361;52.034;20.656;2023-12-22T04:32:00;96354.25;;;3.10;78.31
77299;BME280;66361;52.034;20.656;2023-12-22T04:35:45;96346.44;;;3.10;77.25
77299;BME280;66361;52.034;20.656;2023-12-22T04:39:29;96356.50;;;3.15;77.49
77299;BME280;66361;52.034;20.656;2023-12-22T04:43:13;96364.09;;;3.18;77.29
77299;BME280;66361;52.034;20.656;2023-12-22T04:46:57;96370.19;;;3.06;77.66
77299;BME280;66361;52.034;20.656;2023-12-22T04:50:41;96361.81;;;2.89;79.22
77299;BME280;66361;52.034;20.656;2023-12-22T04:54:27;96386.91;;;2.78;80.73
77299;BME280;66361;52.034;20.656;2023-12-22T04:58:11;96388.75;;;2.52;82.06
77299;BME280;66361;52.034;20.656;2023-12-22T05:01:56;96369.44;;;2.31;82.95
77299;BME280;66361;52.034;20.656;2023-12-22T05:05:40;96385.75;;;2.20;83.72
77299;BME280;66361;52.034;20.656;2023-12-22T05:09:24;96382.31;;;2.20;83.11
77299;BME280;66361;52.034;20.656;2023-12-22T05:13:11;96386.47;;;2.22;83.49
77299;BME280;66361;52.034;20.656;2023-12-22T05:16:55;96377.41;;;2.28;83.04
77299;BME280;66361;52.034;20.656;2023-12-22T05:20:42;96405.09;;;2.29;84.21
77299;BME280;66361;52.034;20.656;2023-12-22T05:24:27;96402.91;;;2.35;83.71
77299;BME280;66361;52.034;20.656;2023-12-22T05:28:12;96395.09;;;2.35;83.67
77299;BME280;66361;52.034;20.656;2023-12-22T05:31:56;96405.59;;;2.34;83.71
77299;BME280;66361;52.034;20.656;2023-12-22T05:35:40;96404.06;;;2.31;83.11
77299;BME280;66361;52.034;20.656;2023-12-22T05:39:25;96395.44;;;2.31;83.27
77299;BME280;66361;52.034;20.656;2023-12-22T05:43:09;96415.16;;;2.33;82.86
77299;BME280;66361;52.034;20.656;2023-12-22T05:46:55;96406.34;;;2.36;83.26
77299;BME280;66361;52.034;20.656;2023-12-22T05:50:39;96406.66;;;2.31;82.14
77299;BME280;66361;52.034;20.656;2023-12-22T05:54:23;96406.22;;;2.37;81.36
77299;BME280;66361;52.034;20.656;2023-12-22T05:58:07;96394.25;;;2.35;81.04
77299;BME280;66361;52.034;20.656;2023-12-22T06:01:54;96411.00;;;2.43;79.54
77299;BME280;66361;52.034;20.656;2023-12-22T06:05:38;96417.44;;;2.63;76.96
77299;BME280;66361;52.034;20.656;2023-12-22T06:09:23;96414.53;;;2.68;75.52
77299;BME280;66361;52.034;20.656;2023-12-22T06:13:07;96421.47;;;2.80;74.62
77299;BME280;66361;52.034;20.656;2023-12-22T06:16:54;96438.00;;;2.91;72.95
77299;BME280;66361;52.034;20.656;2023-12-22T06:20:40;96432.59;;;2.94;70.73
77299;BME280;66361;52.034;20.656;2023-12-22T06:24:25;96439.25;;;2.86;70.87
77299;BME280;66361;52.034;20.656;2023-12-22T06:28:08;96450.03;;;3.05;69.10
77299;BME280;66361;52.034;20.656;2023-12-22T06:31:52;96451.09;;;3.03;67.72
77299;BME280;66361;52.034;20.656;2023-12-22T06:35:38;96466.47;;;3.06;66.62
77299;BME280;66361;52.034;20.656;2023-12-22T06:39:23;96466.47;;;3.18;65.23
77299;BME280;66361;52.034;20.656;2023-12-22T06:43:08;96470.22;;;3.14;65.97
77299;BME280;66361;52.034;20.656;2023-12-22T06:46:52;96471.16;;;3.13;65.94
77299;BME280;66361;52.034;20.656;2023-12-22T06:50:37;96465.75;;;3.16;65.19
77299;BME280;66361;52.034;20.656;2023-12-22T06:54:22;96483.88;;;3.05;66.26
77299;BME280;66361;52.034;20.656;2023-12-22T06:58:06;96488.66;;;2.99;66.44
77299;BME280;66361;52.034;20.656;2023-12-22T07:01:51;96497.53;;;2.96;65.96
77299;BME280;66361;52.034;20.656;2023-12-22T07:05:52;96504.59;;;3.07;65.95
77299;BME280;66361;52.034;20.656;2023-12-22T07:09:35;96508.88;;;3.08;64.63
77299;BME280;66361;52.034;20.656;2023-12-22T07:13:19;96520.75;;;3.12;64.17
77299;BME280;66361;52.034;20.656;2023-12-22T07:17:03;96513.47;;;3.04;65.06
77299;BME280;66361;52.034;20.656;2023-12-22T07:20:47;96513.03;;;2.97;64.83
77299;BME280;66361;52.034;20.656;2023-12-22T07:24:33;96521.09;;;2.82;65.97
77299;BME280;66361;52.034;20.656;2023-12-22T07:28:17;96517.75;;;2.67;65.45
77299;BME280;66361;52.034;20.656;2023-12-22T07:32:01;96520.53;;;2.51;64.61
77299;BME280;66361;52.034;20.656;2023-12-22T07:35:47;96514.94;;;2.45;63.70
77299;BME280;66361;52.034;20.656;2023-12-22T07:39:32;96537.50;;;2.44;62.84
77299;BME280;66361;52.034;20.656;2023-12-22T07:43:19;96534.91;;;2.57;62.99
77299;BME280;66361;52.034;20.656;2023-12-22T07:47:03;96536.06;;;2.66;62.03
77299;BME280;66361;52.034;20.656;2023-12-22T07:50:56;96544.19;;;2.74;61.66
77299;BME280;66361;52.034;20.656;2023-12-22T07:54:42;96543.88;;;2.66;62.87
77299;BME280;66361;52.034;20.656;2023-12-22T07:58:25;96558.41;;;2.43;63.51
77299;BME280;66361;52.034;20.656;2023-12-22T08:02:10;96559.81;;;2.34;66.13
77299;BME280;66361;52.034;20.656;2023-12-22T08:05:54;96558.72;;;2.38;66.57
77299;BME280;66361;52.034;20.656;2023-12-22T08:09:38;96568.28;;;2.38;68.28
77299;BME280;66361;52.034;20.656;2023-12-22T08:13:24;96557.66;;;2.41;68.50
77299;BME280;66361;52.034;20.656;2023-12-22T08:17:08;96550.81;;;2.52;69.57
77299;BME280;66361;52.034;20.656;2023-12-22T08:20:54;96550.19;;;2.49;69.04
77299;BME280;66361;52.034;20.656;2023-12-22T08:24:39;96552.09;;;2.85;68.32
77299;BME280;66361;52.034;20.656;2023-12-22T08:28:25;96552.19;;;3.58;67.15
77299;BME280;66361;52.034;20.656;2023-12-22T08:32:09;96552.19;;;3.94;65.41
77299;BME280;66361;52.034;20.656;2023-12-22T08:35:53;96558.97;;;3.97;65.09
77299;BME280;66361;52.034;20.656;2023-12-22T08:39:37;96565.53;;;3.66;65.67
77299;BME280;66361;52.034;20.656;2023-12-22T08:43:21;96566.06;;;3.58;65.71
77299;BME280;66361;52.034;20.656;2023-12-22T08:47:06;96545.59;;;3.28;66.43
77299;BME280;66361;52.034;20.656;2023-12-22T08:50:52;96558.84;;;3.13;67.35
77299;BME280;66361;52.034;20.656;2023-12-22T08:54:36;96547.41;;;3.03;67.15
77299;BME280;66361;52.034;20.656;2023-12-22T08:58:19;96552.38;;;3.06;67.01
77299;BME280;66361;52.034;20.656;2023-12-22T09:02:03;96554.25;;;3.16;65.91
77299;BME280;66361;52.034;20.656;2023-12-22T09:05:49;96553.72;;;3.37;65.20
77299;BME280;66361;52.034;20.656;2023-12-22T09:09:33;96552.50;;;3.66;63.87
77299;BME280;66361;52.034;20.656;2023-12-22T09:13:18;96559.16;;;3.70;63.87
77299;BME280;66361;52.034;20.656;2023-12-22T09:17:02;96551.13;;;3.73;64.60
77299;BME280;66361;52.034;20.656;2023-12-22T09:20:46;96540.84;;;3.59;63.80
77299;BME280;66361;52.034;20.656;2023-12-22T09:24:31;96532.00;;;3.49;63.37
77299;BME280;66361;52.034;20.656;2023-12-22T09:28:17;96520.19;;;3.56;63.64
77299;BME280;66361;52.034;20.656;2023-12-22T09:32:02;96509.38;;;3.49;64.40
77299;BME280;66361;52.034;20.656;2023-12-22T09:35:46;96506.03;;;3.60;63.97
77299;BME280;66361;52.034;20.656;2023-12-22T09:39:32;96497.31;;;3.72;63.44
77299;BME280;66361;52.034;20.656;2023-12-22T09:43:16;96505.88;;;3.98;63.31
77299;BME280;66361;52.034;20.656;2023-12-22T09:47:04;96500.13;;;4.17;62.26
77299;BME280;66361;52.034;20.656;2023-12-22T09:50:49;96491.84;;;4.23;62.66
77299;BME280;66361;52.034;20.656;2023-12-22T09:54:36;96493.50;;;4.12;63.01
77299;BME280;66361;52.034;20.656;2023-12-22T09:58:22;96465.22;;;3.95;62.67
77299;BME280;66361;52.034;20.656;2023-12-22T10:02:08;96468.69;;;4.07;64.47
77299;BME280;66361;52.034;20.656;2023-12-22T10:05:51;96469.00;;;3.91;63.05
77299;BME280;66361;52.034;20.656;2023-12-22T10:09:37;96462.19;;;3.78;64.02
77299;BME280;66361;52.034;20.656;2023-12-22T10:13:21;96464.63;;;3.68;63.47
77299;BME280;66361;52.034;20.656;2023-12-22T10:17:05;96466.47;;;3.55;64.79
77299;BME280;66361;52.034;20.656;2023-12-22T10:20:49;96457.47;;;3.59;64.14
77299;BME280;66361;52.034;20.656;2023-12-22T10:24:40;96490.56;;;3.46;65.07
77299;BME280;66361;52.034;20.656;2023-12-22T10:28:27;96569.53;;;2.45;72.02
77299;BME280;66361;52.034;20.656;2023-12-22T10:32:11;96615.31;;;1.10;79.80
77299;BME280;66361;52.034;20.656;2023-12-22T10:51:58;96534.00;;;0.39;85.53
77299;BME280;66361;52.034;20.656;2023-12-22T10:55:43;96522.50;;;0.29;85.65
77299;BME280;66361;52.034;20.656;2023-12-22T10:59:33;96519.00;;;0.44;86.40
77299;BME280;66361;52.034;20.656;2023-12-22T11:03:32;96507.44;;;0.49;85.78
77299;BME280;66361;52.034;20.656;2023-12-22T11:07:27;96498.03;;;0.63;85.91
77299;BME280;66361;52.034;20.656;2023-12-22T11:11:17;96499.41;;;0.68;85.85
77299;BME280;66361;52.034;20.656;2023-12-22T11:15:05;96507.44;;;0.64;85.40
77299;BME280;66361;52.034;20.656;2023-12-22T11:18:53;96496.91;;;0.81;85.63
77299;BME280;66361;52.034;20.656;2023-12-22T11:22:42;96497.09;;;1.06;85.21
77299;BME280;66361;52.034;20.656;2023-12-22T11:26:26;96492.84;;;0.91;84.50
77299;BME280;66361;52.034;20.656;2023-12-22T11:30:12;96488.94;;;0.84;84.47
77299;BME280;66361;52.034;20.656;2023-12-22T11:34:00;96480.78;;;0.76;84.47
77299;BME280;66361;52.034;20.656;2023-12-22T11:37:54;96478.19;;;0.76;85.04
77299;BME280;66361;52.034;20.656;2023-12-22T11:41:40;96474.59;;;0.92;84.99
77299;BME280;66361;52.034;20.656;2023-12-22T11:45:25;96481.56;;;1.19;84.79
77299;BME280;66361;52.034;20.656;2023-12-22T11:49:12;96468.88;;;1.55;83.61
77299;BME280;66361;52.034;20.656;2023-12-22T11:53:21;96473.06;;;1.70;82.90
77299;BME280;66361;52.034;20.656;2023-12-22T11:57:05;96473.81;;;1.72;82.07
77299;BME280;66361;52.034;20.656;2023-12-22T12:00:52;96460.09;;;1.70;81.57
77299;BME280;66361;52.034;20.656;2023-12-22T12:04:37;96460.50;;;1.64;81.93
77299;BME280;66361;52.034;20.656;2023-12-22T12:08:30;96452.09;;;1.73;81.38
77299;BME280;66361;52.034;20.656;2023-12-22T12:12:15;96457.00;;;1.78;79.88
77299;BME280;66361;52.034;20.656;2023-12-22T12:16:00;96452.81;;;1.75;79.30
77299;BME280;66361;52.034;20.656;2023-12-22T12:19:47;96439.94;;;1.74;79.49
77299;BME280;66361;52.034;20.656;2023-12-22T12:23:32;96427.69;;;1.76;78.41
77299;BME280;66361;52.034;20.656;2023-12-22T12:27:18;96421.38;;;1.80;78.74
77299;BME280;66361;52.034;20.656;2023-12-22T12:31:04;96418.78;;;1.80;78.05
77299;BME280;66361;52.034;20.656;2023-12-22T12:34:49;96427.28;;;1.82;79.01
77299;BME280;66361;52.034;20.656;2023-12-22T12:38:43;96431.22;;;1.75;78.64
77299;BME280;66361;52.034;20.656;2023-12-22T12:42:29;96438.56;;;1.68;80.25
77299;BME280;66361;52.034;20.656;2023-12-22T12:46:14;96449.84;;;1.55;80.94
77299;BME280;66361;52.034;20.656;2023-12-22T12:49:58;96451.19;;;1.48;81.50
77299;BME280;66361;52.034;20.656;2023-12-22T12:53:44;96446.56;;;1.38;82.33
77299;BME280;66361;52.034;20.656;2023-12-22T12:57:28;96437.41;;;1.33;83.17
77299;BME280;66361;52.034;20.656;2023-12-22T13:01:11;96435.13;;;1.28;83.00
77299;BME280;66361;52.034;20.656;2023-12-22T13:05:08;96436.75;;;1.29;83.93
77299;BME280;66361;52.034;20.656;2023-12-22T13:08:55;96428.19;;;1.29;84.17
77299;BME280;66361;52.034;20.656;2023-12-22T13:12:39;96423.06;;;1.27;84.25
77299;BME280;66361;52.034;20.656;2023-12-22T13:16:26;96422.25;;;1.27;83.85
77299;BME280;66361;52.034;20.656;2023-12-22T13:20:15;96415.91;;;1.31;83.93
77299;BME280;66361;52.034;20.656;2023-12-22T13:24:10;96416.66;;;1.33;83.60
77299;BME280;66361;52.034;20.656;2023-12-22T13:27:55;96420.16;;;1.32;84.13
77299;BME280;66361;52.034;20.656;2023-12-22T13:31:41;96420.16;;;1.32;84.09
77299;BME280;66361;52.034;20.656;2023-12-22T13:35:25;96418.31;;;1.34;84.67
77299;BME280;66361;52.034;20.656;2023-12-22T13:39:12;96417.41;;;1.35;83.88
77299;BME280;66361;52.034;20.656;2023-12-22T13:42:57;96416.00;;;1.29;84.45
77299;BME280;66361;52.034;20.656;2023-12-22T13:46:47;96408.44;;;1.26;84.67
77299;BME280;66361;52.034;20.656;2023-12-22T13:50:31;96400.81;;;1.23;84.19
77299;BME280;66361;52.034;20.656;2023-12-22T13:54:18;96399.38;;;1.19;85.19
77299;BME280;66361;52.034;20.656;2023-12-22T13:58:02;96403.19;;;1.14;85.20
77299;BME280;66361;52.034;20.656;2023-12-22T14:01:46;96393.91;;;1.10;85.74
77299;BME280;66361;52.034;20.656;2023-12-22T14:05:35;96406.16;;;1.08;85.55
77299;BME280;66361;52.034;20.656;2023-12-22T14:09:21;96407.94;;;1.07;85.61
77299;BME280;66361;52.034;20.656;2023-12-22T14:13:07;96405.22;;;1.09;85.16
77299;BME280;66361;52.034;20.656;2023-12-22T14:16:51;96405.63;;;1.03;85.77
77299;BME280;66361;52.034;20.656;2023-12-22T14:20:35;96396.28;;;1.00;86.34
77299;BME280;66361;52.034;20.656;2023-12-22T14:24:21;96408.16;;;0.90;85.98
77299;BME280;66361;52.034;20.656;2023-12-22T14:28:04;96401.78;;;0.81;86.56
77299;BME280;66361;52.034;20.656;2023-12-22T14:31:49;96412.25;;;0.80;86.30
77299;BME280;66361;52.034;20.656;2023-12-22T14:35:34;96402.69;;;0.80;87.26
77299;BME280;66361;52.034;20.656;2023-12-22T14:39:21;96403.63;;;0.79;87.21
77299;BME280;66361;52.034;20.656;2023-12-22T14:43:05;96419.31;;;0.78;86.81
77299;BME280;66361;52.034;20.656;2023-12-22T14:46:49;96413.47;;;0.74;86.75
77299;BME280;66361;52.034;20.656;2023-12-22T14:50:34;96402.34;;;0.72;87.28
77299;BME280;66361;52.034;20.656;2023-12-22T14:54:18;96404.09;;;0.72;87.74
77299;BME280;66361;52.034;20.656;2023-12-22T14:58:04;96419.56;;;0.73;87.06
77299;BME280;66361;52.034;20.656;2023-12-22T15:01:50;96411.53;;;0.78;87.33
77299;BME280;66361;52.034;20.656;2023-12-22T15:05:35;96428.63;;;0.80;86.56
77299;BME280;66361;52.034;20.656;2023-12-22T15:09:19;96407.50;;;0.86;86.58
77299;BME280;66361;52.034;20.656;2023-12-22T15:13:06;96424.56;;;0.90;86.24
77299;BME280;66361;52.034;20.656;2023-12-22T15:16:50;96421.03;;;0.91;86.36
77299;BME280;66361;52.034;20.656;2023-12-22T15:20:35;96417.78;;;0.88;87.35
77299;BME280;66361;52.034;20.656;2023-12-22T15:24:19;96435.19;;;0.86;87.49
77299;BME280;66361;52.034;20.656;2023-12-22T15:28:05;96429.75;;;0.90;86.40
77299;BME280;66361;52.034;20.656;2023-12-22T15:31:51;96441.13;;;0.88;87.19
77299;BME280;66361;52.034;20.656;2023-12-22T15:35:42;96423.06;;;0.86;86.82
77299;BME280;66361;52.034;20.656;2023-12-22T15:39:26;96444.66;;;0.87;87.00
77299;BME280;66361;52.034;20.656;2023-12-22T15:43:11;96447.25;;;0.87;87.09
77299;BME280;66361;52.034;20.656;2023-12-22T15:46:55;96462.91;;;0.85;86.83
77299;BME280;66361;52.034;20.656;2023-12-22T15:50:57;96470.97;;;0.81;87.04
77299;BME280;66361;52.034;20.656;2023-12-22T15:54:41;96473.66;;;0.79;87.36
77299;BME280;66361;52.034;20.656;2023-12-22T15:58:29;96465.16;;;0.77;87.44
77299;BME280;66361;52.034;20.656;2023-12-22T16:02:13;96470.50;;;0.74;86.79
77299;BME280;66361;52.034;20.656;2023-12-22T16:05:57;96469.75;;;0.72;87.52
77299;BME280;66361;52.034;20.656;2023-12-22T16:09:41;96476.63;;;0.73;87.33
77299;BME280;66361;52.034;20.656;2023-12-22T16:13:25;96479.13;;;0.75;87.12
77299;BME280;66361;52.034;20.656;2023-12-22T16:17:13;96480.50;;;0.80;87.46
77299;BME280;66361;52.034;20.656;2023-12-22T16:21:00;96488.84;;;0.85;86.90
77299;BME280;66361;52.034;20.656;2023-12-22T16:24:44;96499.03;;;0.88;87.39
77299;BME280;66361;52.034;20.656;2023-12-22T16:28:28;96495.34;;;0.92;86.83
77299;BME280;66361;52.034;20.656;2023-12-22T16:32:14;96511.44;;;0.97;86.99
77299;BME280;66361;52.034;20.656;2023-12-22T16:35:58;96507.84;;;1.00;86.37
77299;BME280;66361;52.034;20.656;2023-12-22T16:39:50;96500.78;;;1.02;86.19
77299;BME280;66361;52.034;20.656;2023-12-22T16:43:35;96507.81;;;1.14;85.29
77299;BME280;66361;52.034;20.656;2023-12-22T16:47:20;96505.84;;;1.18;85.37
77299;BME280;66361;52.034;20.656;2023-12-22T16:51:11;96515.00;;;1.23;84.69
77299;BME280;66361;52.034;20.656;2023-12-22T16:54:56;96521.41;;;1.32;84.29
77299;BME280;66361;52.034;20.656;2023-12-22T16:58:40;96516.28;;;1.30;83.32
77299;BME280;66361;52.034;20.656;2023-12-22T17:02:25;96505.56;;;1.36;83.05
77299;BME280;66361;52.034;20.656;2023-12-22T17:06:14;96530.03;;;1.32;82.52
77299;BME280;66361;52.034;20.656;2023-12-22T17:10:00;96528.66;;;1.27;82.50
77299;BME280;66361;52.034;20.656;2023-12-22T17:13:44;96538.81;;;1.30;83.08
77299;BME280;66361;52.034;20.656;2023-12-22T17:17:31;96543.31;;;1.28;82.71
77299;BME280;66361;52.034;20.656;2023-12-22T17:21:16;96553.84;;;1.25;81.96
77299;BME280;66361;52.034;20.656;2023-12-22T17:25:00;96536.63;;;1.24;81.80
77299;BME280;66361;52.034;20.656;2023-12-22T17:28:45;96547.09;;;1.36;80.09
77299;BME280;66361;52.034;20.656;2023-12-22T17:32:31;96554.81;;;1.65;77.63
77299;BME280;66361;52.034;20.656;2023-12-22T17:36:14;96539.91;;;1.81;74.92
77299;BME280;66361;52.034;20.656;2023-12-22T17:40:00;96549.81;;;1.89;73.37
77299;BME280;66361;52.034;20.656;2023-12-22T17:43:44;96529.28;;;1.98;71.87
77299;BME280;66361;52.034;20.656;2023-12-22T17:47:28;96549.53;;;1.93;70.85
77299;BME280;66361;52.034;20.656;2023-12-22T17:51:13;96545.16;;;1.94;70.33
77299;BME280;66361;52.034;20.656;2023-12-22T17:54:58;96546.97;;;2.06;68.23
77299;BME280;66361;52.034;20.656;2023-12-22T17:58:42;96556.00;;;2.00;68.38
77299;BME280;66361;52.034;20.656;2023-12-22T18:02:26;96567.66;;;2.07;67.56
77299;BME280;66361;52.034;20.656;2023-12-22T18:06:11;96545.81;;;2.10;67.64
77299;BME280;66361;52.034;20.656;2023-12-22T18:09:57;96575.91;;;2.14;66.43
77299;BME280;66361;52.034;20.656;2023-12-22T18:13:41;96546.41;;;2.28;65.36
77299;BME280;66361;52.034;20.656;2023-12-22T18:17:26;96554.69;;;2.20;65.29
77299;BME280;66361;52.034;20.656;2023-12-22T18:21:10;96566.97;;;2.18;65.42
77299;BME280;66361;52.034;20.656;2023-12-22T18:24:55;96565.19;;;2.18;64.47
77299;BME280;66361;52.034;20.656;2023-12-22T18:28:41;96570.03;;;2.10;65.49
77299;BME280;66361;52.034;20.656;2023-12-22T18:32:25;96578.81;;;2.09;65.14
77299;BME280;66361;52.034;20.656;2023-12-22T18:36:10;96566.34;;;2.14;63.67
77299;BME280;66361;52.034;20.656;2023-12-22T18:39:55;96575.91;;;2.14;63.65
77299;BME280;66361;52.034;20.656;2023-12-22T18:43:41;96577.69;;;2.26;63.06
77299;BME280;66361;52.034;20.656;2023-12-22T18:47:25;96593.69;;;2.20;63.39
77299;BME280;66361;52.034;20.656;2023-12-22T18:51:12;96596.28;;;2.20;62.37
77299;BME280;66361;52.034;20.656;2023-12-22T18:54:57;96598.88;;;2.20;61.72
77299;BME280;66361;52.034;20.656;2023-12-22T18:58:43;96606.25;;;2.13;63.31
77299;BME280;66361;52.034;20.656;2023-12-22T19:02:29;96607.09;;;2.14;62.96
77299;BME280;66361;52.034;20.656;2023-12-22T19:06:33;96617.66;;;2.11;63.00
77299;BME280;66361;52.034;20.656;2023-12-22T19:10:18;96596.28;;;2.20;61.63
77299;BME280;66361;52.034;20.656;2023-12-22T19:14:04;96586.13;;;2.30;60.32
77299;BME280;66361;52.034;20.656;2023-12-22T19:17:47;96609.19;;;2.22;60.82
77299;BME280;66361;52.034;20.656;2023-12-22T19:21:32;96604.28;;;2.17;61.50
77299;BME280;66361;52.034;20.656;2023-12-22T19:25:17;96626.47;;;2.23;61.11
77299;BME280;66361;52.034;20.656;2023-12-22T19:29:01;96618.09;;;2.17;61.04
77299;BME280;66361;52.034;20.656;2023-12-22T19:32:47;96628.47;;;2.05;61.18
77299;BME280;66361;52.034;20.656;2023-12-22T19:36:33;96625.69;;;2.08;61.65
77299;BME280;66361;52.034;20.656;2023-12-22T19:40:19;96648.84;;;2.11;61.39
77299;BME280;66361;52.034;20.656;2023-12-22T19:44:03;96639.13;;;2.14;61.22
77299;BME280;66361;52.034;20.656;2023-12-22T19:47:49;96649.31;;;2.17;60.20
77299;BME280;66361;52.034;20.656;2023-12-22T19:51:33;96643.66;;;2.11;60.60
77299;BME280;66361;52.034;20.656;2023-12-22T19:55:17;96640.53;;;2.06;60.98
77299;BME280;66361;52.034;20.656;2023-12-22T19:59:05;96646.75;;;2.03;60.86
77299;BME280;66361;52.034;20.656;2023-12-22T20:02:51;96651.56;;;2.09;60.24
77299;BME280;66361;52.034;20.656;2023-12-22T20:06:35;96657.59;;;2.10;60.53
77299;BME280;66361;52.034;20.656;2023-12-22T20:10:19;96667.06;;;2.11;60.73